Terminal Aerodrome Forecast
Issued by NWS

Home | Current Version | Previous Version | Text Only | Print | Product List | Glossary On
Versions: 1 2 3 4 5 6 7 8 9 10 11 12 13 14 15 16 17 18 19 20 21 22 23 24
992
FTUS44 KMAF 060520
TAFCNM
TAF
KCNM 060520Z 0606/0706 26011KT P6SM SKC
      TEMPO 0606/0608 25015G25KT
     FM060800 27014KT P6SM FEW250
     FM061200 33011KT P6SM SCT250=

USA.gov is the U.S. government's official web portal to all federal, state and local government web resources and services.